Citadel — PBOK — position and weather

sailwx.info

Track history (hours):
 
Tides and Currents Weather Stations Pressure Air Temp Water Temp Dewpoint Dewpoint Depression Visibility Wind Speed Wind Dir Waves Ship Positions

Citadel

Last reported at 2016-Nov-24 14:33 UTC. Time now 2016-Dec-11 13:49 UTC.
Position N 38°17' W 010°01'.
Warning: this ship's position is 16 days out of date.

Length 111 m; draft 6 m.

Type: Cargo ship. MMSI: 245977000.

Date/timePositionNaut miles runAvg speedWind from/ knotsBaromVisibWave heightAir tempDewpointWater temp
2016-Nov-24 14:33N 38°17' W 010°01'1211.6
2016-Nov-24 13:32N 38°28' W 010°03'1111.6
2016-Nov-24 12:33N 38°40' W 010°05'1111.3
2016-Nov-24 11:33N 38°51' W 010°05'1111.1
2016-Nov-24 10:33N 39°02' W 010°05'1111.1
2016-Nov-24 09:33N 39°13' W 010°05'  
2016-Nov-21 12:26N 49°44' W 003°32'8 9.3
2016-Nov-21 11:33N 49°48' W 003°21'10 9.1
2016-Nov-21 10:30N 49°53' W 003°09'11211.3
2016-Nov-21 00:33N 50°27' W 000°22'2211.0
2016-Nov-20 22:33N 50°34' E 000°11'5711.3
2016-Nov-20 17:33N 51°04' E 001°27'7 7.2
2016-Nov-20 16:33N 51°09' E 001°35'14 7.2
2016-Nov-20 14:33N 51°23' E 001°32'6 6.1
2016-Nov-20 13:33N 51°24' E 001°22'1 0.5
2016-Nov-20 12:33N 51°25' E 001°23'0 0.1
2016-Nov-20 09:33N 51°25' E 001°23'0 0.1
2016-Nov-20 08:31N 51°25' E 001°23'0 0.0
2016-Nov-20 07:33N 51°25' E 001°23'0 0.0
2016-Nov-20 06:33N 51°25' E 001°23'0 0.1
2016-Nov-20 05:33N 51°25' E 001°23'0 0.1
2016-Nov-20 04:34N 51°25' E 001°23'1 0.7
2016-Nov-20 03:31N 51°25' E 001°24'1 0.4
2016-Nov-20 01:33N 51°25' E 001°23'0 0.1
2016-Nov-19 23:33N 51°25' E 001°23'0 0.1
2016-Nov-19 22:32N 51°25' E 001°23'0 0.1
2016-Nov-19 20:34N 51°25' E 001°23'6 5.7
2016-Nov-19 19:34N 51°24' E 001°32'19 9.7
2016-Nov-19 17:34N 51°24' E 002°03'10 9.6
2016-Nov-19 16:34N 51°20' E 002°17'16 8.0
2016-Nov-19 14:34N 51°23' E 002°43'30 9.9
2016-Nov-19 11:33N 51°25' E 003°30'20 9.8
2016-Nov-19 09:32N 51°25' E 004°02'11 5.4
2016-Nov-19 07:33N 51°21' E 004°17'1 0.5
2016-Nov-19 05:33N 51°22' E 004°18'0 0.2
2016-Nov-19 04:33N 51°22' E 004°17'0 0.0
2016-Nov-18 20:06N 51°22' E 004°17'0 0.0
2016-Nov-16 19:09N 51°22' E 004°17'1 0.8
2016-Nov-16 18:11N 51°21' E 004°17'4 7.0
2016-Nov-16 17:33N 51°24' E 004°12'8 8.4
2016-Nov-16 16:33N 51°26' E 003°59'18 4.2
2016-Nov-16 12:22N 51°10' E 003°47'0 0.0
2016-Nov-16 09:33N 51°10' E 003°47'0 0.0
2016-Nov-16 08:33N 51°10' E 003°47'0 0.0
2016-Nov-16 07:33N 51°10' E 003°47'0 0.0
2016-Nov-16 06:32N 51°10' E 003°47'0 0.0
2016-Nov-16 04:32N 51°10' E 003°47'0 0.0
2016-Nov-16 03:33N 51°10' E 003°47'0 0.0
2016-Nov-16 02:33N 51°10' E 003°47'0 0.0
2016-Nov-16 01:33N 51°10' E 003°47'0 0.0
2016-Nov-15 21:32N 51°10' E 003°47'0 0.0
2016-Nov-15 19:33N 51°10' E 003°47'0 0.0
2016-Nov-15 18:33N 51°10' E 003°47'0 0.0
2016-Nov-15 13:33N 51°10' E 003°47'0 0.0
2016-Nov-15 12:33N 51°10' E 003°47'0 0.0
2016-Nov-15 11:33N 51°10' E 003°47'0 0.0
2016-Nov-15 10:33N 51°10' E 003°47'0 0.0
2016-Nov-15 07:32N 51°10' E 003°47'0 0.0
2016-Nov-15 06:32N 51°10' E 003°47'0 0.0
2016-Nov-15 05:53N 51°10' E 003°47'0 0.0
2016-Nov-15 03:33N 51°10' E 003°47'0 0.0
2016-Nov-15 02:33N 51°10' E 003°47'0 0.0
2016-Nov-15 00:33N 51°10' E 003°47'0 0.0
2016-Nov-14 23:42N 51°10' E 003°47'0 0.0
2016-Nov-14 19:32N 51°10' E 003°47'0 0.0
2016-Nov-14 17:32N 51°10' E 003°47'0 0.0
2016-Nov-14 16:31N 51°10' E 003°47'0 0.0
2016-Nov-14 15:31N 51°10' E 003°47'  
Track history (hours):
 
Tides and Currents Weather Stations Pressure Air Temp Water Temp Dewpoint Dewpoint Depression Visibility Wind Speed Wind Dir Waves Ship Positions

Citadel

Last reported at 2016-Nov-24 14:33 UTC. Time now 2016-Dec-11 13:50 UTC.
Position N 38°17' W 010°01'.
Warning: this ship's position is 16 days out of date.

Length 111 m; draft 6 m.

Type: Cargo ship. MMSI: 245977000.

Date/timePositionNaut miles runAvg speedWind from/ knotsBaromVisibWave heightAir tempDewpointWater temp
2016-Nov-24 14:33N 38°17' W 010°01'1211.6
2016-Nov-24 13:32N 38°28' W 010°03'1111.6
2016-Nov-24 12:33N 38°40' W 010°05'1111.3
2016-Nov-24 11:33N 38°51' W 010°05'1111.1
2016-Nov-24 10:33N 39°02' W 010°05'1111.1
2016-Nov-24 09:33N 39°13' W 010°05'  
2016-Nov-21 12:26N 49°44' W 003°32'8 9.3
2016-Nov-21 11:33N 49°48' W 003°21'10 9.1
2016-Nov-21 10:30N 49°53' W 003°09'11211.3
2016-Nov-21 00:33N 50°27' W 000°22'2211.0
2016-Nov-20 22:33N 50°34' E 000°11'5711.3
2016-Nov-20 17:33N 51°04' E 001°27'7 7.2
2016-Nov-20 16:33N 51°09' E 001°35'14 7.2
2016-Nov-20 14:33N 51°23' E 001°32'6 6.1
2016-Nov-20 13:33N 51°24' E 001°22'1 0.5
2016-Nov-20 12:33N 51°25' E 001°23'0 0.1
2016-Nov-20 09:33N 51°25' E 001°23'0 0.1
2016-Nov-20 08:31N 51°25' E 001°23'0 0.0
2016-Nov-20 07:33N 51°25' E 001°23'0 0.0
2016-Nov-20 06:33N 51°25' E 001°23'0 0.1
2016-Nov-20 05:33N 51°25' E 001°23'0 0.1
2016-Nov-20 04:34N 51°25' E 001°23'1 0.7
2016-Nov-20 03:31N 51°25' E 001°24'1 0.4
2016-Nov-20 01:33N 51°25' E 001°23'0 0.1
2016-Nov-19 23:33N 51°25' E 001°23'0 0.1
2016-Nov-19 22:32N 51°25' E 001°23'0 0.1
2016-Nov-19 20:34N 51°25' E 001°23'6 5.7
2016-Nov-19 19:34N 51°24' E 001°32'19 9.7
2016-Nov-19 17:34N 51°24' E 002°03'10 9.6
2016-Nov-19 16:34N 51°20' E 002°17'16 8.0
2016-Nov-19 14:34N 51°23' E 002°43'30 9.9
2016-Nov-19 11:33N 51°25' E 003°30'20 9.8
2016-Nov-19 09:32N 51°25' E 004°02'11 5.4
2016-Nov-19 07:33N 51°21' E 004°17'1 0.5
2016-Nov-19 05:33N 51°22' E 004°18'0 0.2
2016-Nov-19 04:33N 51°22' E 004°17'0 0.0
2016-Nov-18 20:06N 51°22' E 004°17'0 0.0
2016-Nov-16 19:09N 51°22' E 004°17'1 0.8
2016-Nov-16 18:11N 51°21' E 004°17'4 7.0
2016-Nov-16 17:33N 51°24' E 004°12'8 8.4
2016-Nov-16 16:33N 51°26' E 003°59'18 4.2
2016-Nov-16 12:22N 51°10' E 003°47'0 0.0
2016-Nov-16 09:33N 51°10' E 003°47'0 0.0
2016-Nov-16 08:33N 51°10' E 003°47'0 0.0
2016-Nov-16 07:33N 51°10' E 003°47'0 0.0
2016-Nov-16 06:32N 51°10' E 003°47'0 0.0
2016-Nov-16 04:32N 51°10' E 003°47'0 0.0
2016-Nov-16 03:33N 51°10' E 003°47'0 0.0
2016-Nov-16 02:33N 51°10' E 003°47'0 0.0
2016-Nov-16 01:33N 51°10' E 003°47'0 0.0
2016-Nov-15 21:32N 51°10' E 003°47'0 0.0
2016-Nov-15 19:33N 51°10' E 003°47'0 0.0
2016-Nov-15 18:33N 51°10' E 003°47'0 0.0
2016-Nov-15 13:33N 51°10' E 003°47'0 0.0
2016-Nov-15 12:33N 51°10' E 003°47'0 0.0
2016-Nov-15 11:33N 51°10' E 003°47'0 0.0
2016-Nov-15 10:33N 51°10' E 003°47'0 0.0
2016-Nov-15 07:32N 51°10' E 003°47'0 0.0
2016-Nov-15 06:32N 51°10' E 003°47'0 0.0
2016-Nov-15 05:53N 51°10' E 003°47'0 0.0
2016-Nov-15 03:33N 51°10' E 003°47'0 0.0
2016-Nov-15 02:33N 51°10' E 003°47'0 0.0
2016-Nov-15 00:33N 51°10' E 003°47'0 0.0
2016-Nov-14 23:42N 51°10' E 003°47'0 0.0
2016-Nov-14 19:32N 51°10' E 003°47'0 0.0
2016-Nov-14 17:32N 51°10' E 003°47'0 0.0
2016-Nov-14 16:31N 51°10' E 003°47'0 0.0
2016-Nov-14 15:31N 51°10' E 003°47'  

Dump ship's entire track history